Portada
METAR-TAF:

METAR-TAF

Aeroports :

Nanquín, Xina

latitud: 32-00N, longitud: 118-48E, altitud: 12 m

Observació

L'informe es va fer fa 16 minuts, a les 11:00 UTC
Vent 8 kt del Est
Temperatura 18°C
Humitat 49%
Pressió 1018 hPa
Visibilitat 10 km o més
sense núvols per sota de 1500 mi sense presència de cumulonimbus.

METAR: ZSNJ 091100Z 09004MPS CAVOK 18/07 Q1018 NOSIG

Hora: 19:16 (11:16 UTC)

Pronòstic

L'informe es va fer fa 8 hores i 12 minuts, a les 03:04 UTC
Pronòstic vàlid del 09 a les 06 UTC al 10 a les 06 UTC
Vent 10 kt del Est/Sud-Est
Visibilitat: 3000 m
calitja

TAF: ZSNJ 090304Z 0906/1006 12005MPS 3000 HZ NSC TX23/0907Z TN11/0921Z

Observacions i pronòstics meteorològics de més de 4000 aeroports (METAR i TAF).

Les estacions disponibles són els punts grocs i vermells al mapa.

Posi el ratolí al punt desitjat per veure el nom de l'estació.

Feu clic per veure les observacions i els pronòstics meteorològics.

Per canviar el mapa: feu clic els botons verds amb una creu de color negre per apropar; al botó verd amb un guió per allunyar la imatge; o en les fletxes verdes per a mapes adjacents.


METAR-TAF: